createdAt,value
2019-01-02T00:04:17.797Z,98284.45
2019-01-02T00:09:21.227Z,98277.77
2019-01-02T00:14:25.269Z,98272.91
2019-01-02T00:19:28.911Z,98270.31
2019-01-02T00:24:32.757Z,98266.69
2019-01-02T00:29:52.911Z,98276.61
2019-01-02T00:34:56.547Z,98275.91
2019-01-02T00:39:59.920Z,98264.39
2019-01-02T00:45:04.152Z,98255.37
2019-01-02T00:50:09.979Z,98253.02
2019-01-02T00:55:13.794Z,98243.64
2019-01-02T01:00:23.144Z,98245.11
2019-01-02T01:05:26.617Z,98237.77
2019-01-02T01:10:30.051Z,98235.05
2019-01-02T01:15:33.568Z,98224.31
2019-01-02T01:20:37.907Z,98202.13
2019-01-02T01:25:41.228Z,98185.08
2019-01-02T01:30:44.596Z,98175.34
2019-01-02T01:35:51.388Z,98171.84
2019-01-02T01:40:54.923Z,98173.45
2019-01-02T01:45:58.674Z,98164.17
2019-01-02T01:51:02.314Z,98155.02
2019-01-02T01:56:05.610Z,98140.69
2019-01-02T02:01:08.851Z,98135.63
2019-01-02T02:06:12.238Z,98125.91
2019-01-02T02:11:15.886Z,98122.30
2019-01-02T02:16:19.387Z,98108.28
2019-01-02T02:21:22.785Z,98099.56
2019-01-02T02:26:26.670Z,98107.34
2019-01-02T02:31:30.076Z,98098.19
2019-01-02T02:36:33.840Z,98095.59
2019-01-02T02:41:37.511Z,98096.26
2019-01-02T02:46:41.366Z,98098.96
2019-01-02T02:51:44.769Z,98088.02
2019-01-02T02:56:48.607Z,98094.55
2019-01-02T03:01:52.464Z,98091.50
2019-01-02T03:06:56.618Z,98075.41
2019-01-02T03:12:00.407Z,98073.91
2019-01-02T03:17:04.057Z,98065.30
2019-01-02T03:22:07.804Z,98055.74
2019-01-02T03:27:11.756Z,98049.94
2019-01-02T03:32:15.157Z,98052.78
2019-01-02T03:37:19.046Z,98045.82
2019-01-02T03:42:22.541Z,98037.56
2019-01-02T03:47:26.052Z,98032.07
2019-01-02T03:52:29.388Z,98027.91
2019-01-02T03:57:32.828Z,98040.27
2019-01-02T04:02:36.083Z,98036.46
2019-01-02T04:07:41.163Z,98037.19
2019-01-02T04:12:44.397Z,98024.10
2019-01-02T04:17:48.348Z,98031.54
2019-01-02T04:22:51.779Z,98029.97
2019-01-02T04:27:55.105Z,98016.88
2019-01-02T04:32:58.449Z,98021.84
2019-01-02T04:38:01.801Z,98011.55
2019-01-02T04:43:05.190Z,98026.35
2019-01-02T04:48:08.588Z,98021.59
2019-01-02T04:53:12.260Z,98018.45
2019-01-02T04:58:15.993Z,98008.27
2019-01-02T05:03:19.310Z,98014.23
2019-01-02T05:08:22.761Z,97995.14
2019-01-02T05:13:26.043Z,98009.31
2019-01-02T05:18:29.464Z,98014.20
2019-01-02T05:23:34.639Z,98014.36
2019-01-02T05:28:38.026Z,98001.17
2019-01-02T05:33:41.286Z,97999.28
2019-01-02T05:38:44.865Z,98000.41
2019-01-02T05:43:48.321Z,97993.32
2019-01-02T05:48:51.954Z,98000.73
2019-01-02T05:53:55.259Z,97997.02
2019-01-02T05:58:59.614Z,97994.13
2019-01-02T06:04:03.214Z,97996.86
2019-01-02T06:09:06.778Z,98002.13
2019-01-02T06:14:10.407Z,97999.97
2019-01-02T06:19:14.766Z,98000.58
2019-01-02T06:24:18.208Z,97998.25
2019-01-02T06:29:21.550Z,97994.63
2019-01-02T06:34:25.134Z,97995.87
2019-01-02T06:39:28.416Z,98003.23
2019-01-02T06:44:31.777Z,97995.55
2019-01-02T06:49:35.583Z,97995.72
2019-01-02T06:54:39.058Z,97999.34
2019-01-02T06:59:42.374Z,97991.22
2019-01-02T07:04:45.737Z,98004.50
2019-01-02T07:09:49.205Z,97986.88
2019-01-02T07:14:52.561Z,97975.73
2019-01-02T07:19:56.270Z,97980.41
2019-01-02T07:24:59.602Z,97981.81
2019-01-02T07:30:03.963Z,97973.70
2019-01-02T07:35:48.322Z,97963.64
2019-01-02T07:41:40.637Z,97960.86
2019-01-02T07:47:14.348Z,97949.57
2019-01-02T07:53:13.441Z,97943.50
2019-01-02T07:58:47.391Z,97939.02
2019-01-02T08:04:28.305Z,97938.38
2019-01-02T08:10:16.567Z,97928.87
2019-01-02T08:15:44.380Z,97921.08
2019-01-02T08:21:24.618Z,97915.05
2019-01-02T08:27:12.098Z,97901.97
2019-01-02T08:32:59.520Z,97896.47
2019-01-02T08:38:45.223Z,97882.63
2019-01-02T08:44:08.133Z,97864.02
2019-01-02T08:50:14.410Z,97855.12
2019-01-02T08:55:32.149Z,97838.98
2019-01-02T09:01:09.467Z,97821.66
2019-01-02T09:06:58.798Z,97814.41
2019-01-02T09:12:42.228Z,97806.63
2019-01-02T09:18:30.048Z,97795.75
2019-01-02T09:24:30.431Z,97787.44
2019-01-02T09:30:20.011Z,97771.02
2019-01-02T09:36:01.878Z,97761.59
2019-01-02T09:41:58.881Z,97761.30
2019-01-02T09:47:51.657Z,97755.34
2019-01-02T09:53:51.453Z,97750.13
2019-01-02T09:59:35.574Z,97750.38
2019-01-02T10:05:32.848Z,97752.38
2019-01-02T10:11:29.204Z,97748.99
2019-01-02T10:17:07.166Z,97738.75
2019-01-02T10:22:44.802Z,97731.41
2019-01-02T10:28:44.813Z,97719.20
2019-01-02T10:34:25.432Z,97709.38
2019-01-02T10:40:15.060Z,97693.72
2019-01-02T10:45:45.612Z,97686.11
2019-01-02T10:51:38.723Z,97692.74
2019-01-02T10:57:31.736Z,97690.02
2019-01-02T11:03:22.858Z,97684.42
2019-01-02T11:09:09.721Z,97673.73
2019-01-02T11:14:52.124Z,97665.53
2019-01-02T11:20:35.574Z,97647.60
2019-01-02T11:26:21.034Z,97635.44
2019-01-02T11:32:04.513Z,97635.06
2019-01-02T11:37:47.137Z,97619.49
2019-01-02T11:43:22.362Z,97616.45
2019-01-02T11:48:26.590Z,97594.75
2019-01-02T11:53:30.549Z,97589.38
2019-01-02T11:58:34.628Z,97585.44
2019-01-02T12:03:38.876Z,97577.20
2019-01-02T12:08:42.594Z,97567.31
2019-01-02T12:13:45.998Z,97569.59
2019-01-02T12:18:49.326Z,97569.83
2019-01-02T12:23:53.628Z,97559.16
2019-01-02T12:28:57.035Z,97553.83
2019-01-02T12:34:03.745Z,97556.55
2019-01-02T12:39:07.358Z,97557.25
2019-01-02T12:44:10.797Z,97550.13
2019-01-02T12:49:14.249Z,97541.08
2019-01-02T12:54:17.912Z,97550.61
2019-01-02T12:59:25.150Z,97554.15
2019-01-02T13:04:59.632Z,97558.42
2019-01-02T13:10:38.403Z,97555.15
2019-01-02T13:16:12.753Z,97562.46
2019-01-02T13:21:35.173Z,97567.94
2019-01-02T13:27:09.766Z,97579.70
2019-01-02T13:32:57.822Z,97559.13
2019-01-02T13:38:45.823Z,97572.34
2019-01-02T13:44:33.523Z,97589.62
2019-01-02T13:50:00.547Z,97597.88
2019-01-02T13:55:08.337Z,97592.88
2019-01-02T14:00:11.853Z,97591.50
2019-01-02T14:05:19.683Z,97593.17
2019-01-02T14:10:23.486Z,97595.27
2019-01-02T14:15:27.360Z,97623.14
2019-01-02T14:20:30.678Z,97615.97
2019-01-02T14:25:34.254Z,97597.53
2019-01-02T14:30:38.114Z,97589.65
2019-01-02T14:35:41.839Z,97588.73
2019-01-02T14:40:45.129Z,97590.34
2019-01-02T14:45:48.906Z,97596.85
2019-01-02T14:50:52.240Z,97580.52
2019-01-02T14:55:55.737Z,97591.30
2019-01-02T15:00:59.157Z,97589.92
2019-01-02T15:06:02.669Z,97598.53
2019-01-02T15:11:08.358Z,97585.22
2019-01-02T15:16:11.483Z,97594.44
2019-01-02T15:21:14.952Z,97589.39
2019-01-02T15:26:18.290Z,97606.28
2019-01-02T15:31:22.091Z,97629.92
2019-01-02T15:36:26.338Z,97588.70
2019-01-02T15:41:29.771Z,97631.39
2019-01-02T15:46:33.314Z,97596.93
2019-01-02T15:51:36.779Z,97595.69
2019-01-02T15:56:40.183Z,97609.02
2019-01-02T16:01:43.666Z,97604.12
2019-01-02T16:06:50.769Z,97623.50
2019-01-02T16:11:54.648Z,97607.39
2019-01-02T16:16:58.214Z,97596.46
2019-01-02T16:22:03.994Z,97626.42
2019-01-02T16:27:07.702Z,97623.00
2019-01-02T16:32:11.439Z,97644.89
2019-01-02T16:37:14.905Z,97640.07
2019-01-02T16:42:18.387Z,97632.02
2019-01-02T16:47:26.264Z,97648.50
2019-01-02T16:52:29.694Z,97629.17
2019-01-02T16:57:39.891Z,97637.39
2019-01-02T17:02:44.782Z,97660.36
2019-01-02T17:07:51.053Z,97676.63
2019-01-02T17:12:54.665Z,97719.46
2019-01-02T17:17:58.409Z,97748.47
2019-01-02T17:23:01.762Z,97663.73
2019-01-02T17:28:05.493Z,97693.09
2019-01-02T17:33:09.517Z,97705.42
2019-01-02T17:38:15.791Z,97683.55
2019-01-02T17:43:19.530Z,97714.14
2019-01-02T17:48:23.923Z,97677.78
2019-01-02T17:53:27.330Z,97702.63
2019-01-02T17:58:30.685Z,97688.12
2019-01-02T18:03:34.344Z,97730.20
2019-01-02T18:08:37.820Z,97697.61
2019-01-02T18:13:41.438Z,97695.41
2019-01-02T18:18:44.971Z,97702.23
2019-01-02T18:23:50.888Z,97723.91
2019-01-02T18:28:54.268Z,97718.02
2019-01-02T18:33:57.658Z,97717.80
2019-01-02T18:39:01.020Z,97714.75
2019-01-02T18:44:05.188Z,97724.20
2019-01-02T18:49:08.539Z,97746.73
2019-01-02T18:54:11.981Z,97735.30
2019-01-02T18:59:15.557Z,97742.44
2019-01-02T19:04:19.074Z,97717.77
2019-01-02T19:09:22.815Z,97745.64
2019-01-02T19:14:27.149Z,97723.46
2019-01-02T19:19:30.712Z,97752.27
2019-01-02T19:24:34.058Z,97762.25
2019-01-02T19:29:37.457Z,97757.46
2019-01-02T19:34:40.911Z,97770.14
2019-01-02T19:39:44.290Z,97792.34
2019-01-02T19:44:47.731Z,97721.28
2019-01-02T19:49:51.363Z,97752.77
2019-01-02T19:54:54.779Z,97743.47
2019-01-02T19:59:58.509Z,97764.41
2019-01-02T20:05:02.066Z,97747.74
2019-01-02T20:10:07.904Z,97740.74
2019-01-02T20:15:12.513Z,97756.85
2019-01-02T20:20:16.384Z,97727.66
2019-01-02T20:25:19.667Z,97794.72
2019-01-02T20:30:22.990Z,97730.56
2019-01-02T20:35:26.990Z,97740.13
2019-01-02T20:40:30.326Z,97727.77
2019-01-02T20:45:33.745Z,97755.48
2019-01-02T20:50:37.181Z,97751.30
2019-01-02T20:55:40.536Z,97741.47
2019-01-02T21:00:44.354Z,97774.72
2019-01-02T21:05:50.382Z,97805.12
2019-01-02T21:10:53.797Z,97745.20
2019-01-02T21:15:57.425Z,97770.00
2019-01-02T21:21:00.888Z,97735.15
2019-01-02T21:26:04.580Z,97722.62
2019-01-02T21:31:08.011Z,97743.34
2019-01-02T21:36:11.538Z,97737.95
2019-01-02T21:41:15.229Z,97757.98
2019-01-02T21:46:20.671Z,97732.44
2019-01-02T21:51:24.267Z,97723.69
2019-01-02T21:56:28.001Z,97754.60
2019-01-02T22:01:31.744Z,97766.07
2019-01-02T22:06:35.370Z,97757.44
2019-01-02T22:11:39.169Z,97742.66
2019-01-02T22:16:42.462Z,97762.34
2019-01-02T22:21:45.992Z,97776.05
2019-01-02T22:26:49.457Z,97755.70
2019-01-02T22:31:52.791Z,97748.73
2019-01-02T22:36:56.719Z,97749.45
2019-01-02T22:42:01.242Z,97749.45
2019-01-02T22:47:04.646Z,97752.84
2019-01-02T22:52:08.122Z,97716.16
2019-01-02T22:57:11.503Z,97739.59
2019-01-02T23:02:32.845Z,97776.92
2019-01-02T23:07:58.802Z,97757.44
2019-01-02T23:13:16.613Z,97769.80
2019-01-02T23:18:38.418Z,97731.70
2019-01-02T23:24:07.317Z,97786.94
2019-01-02T23:29:29.275Z,97771.20
2019-01-02T23:35:07.137Z,97770.28
2019-01-02T23:40:48.650Z,97767.79
2019-01-02T23:46:26.271Z,97765.18
2019-01-02T23:51:43.676Z,97797.14
2019-01-02T23:57:05.661Z,97773.33
